Viking Queen — WDB9919 — position and weather

sailwx.info

Track history (hours):
 
Tides and Currents Weather Stations Pressure Air Temp Water Temp Dewpoint Dewpoint Depression Visibility Wind Speed Wind Dir Waves Ship Positions

Viking Queen

Owner: American River Transportation Company, St Louis, MO. More information available from US FCC via Universal Licensing System and Coast Guard Vessel Documentation Center.

Last reported at 2016-May-30 23:33 UTC. Time now 2016-May-31 00:08 UTC.
Position N 32°07' W 091°07'.

; draft 3.2 m.

Type: Towing. MMSI: 366985050.

Date/timePositionNaut miles runAvg speedWind from/ knotsBaromVisibWave heightAir tempDewpointWater temp
2016-May-30 23:33N 32°07' W 091°07'4 4.3
2016-May-30 22:33N 32°04' W 091°04'4 4.3
2016-May-30 21:33N 31°60' W 091°06'  
2016-May-28 10:32N 29°57' W 090°23'4 4.1
2016-May-28 09:29N 29°58' W 090°18'1 0.2
2016-May-28 06:04N 29°58' W 090°17'0 0.0
2016-May-28 03:14N 29°58' W 090°17'0 0.0
2016-May-27 19:16N 29°58' W 090°17'0 0.0
2016-May-27 17:15N 29°58' W 090°17'129 3.0
2016-May-25 21:32N 31°59' W 091°09'7 7.0
2016-May-25 20:32N 32°05' W 091°05'3 3.0
2016-May-25 19:34N 32°07' W 091°03'8 8.2
2016-May-25 18:33N 32°15' W 090°59'7 6.7
2016-May-25 17:33N 32°20' W 090°54'6 6.5
2016-May-25 16:34N 32°25' W 090°60'8 8.1
2016-May-25 15:32N 32°31' W 091°06'9 8.1
2016-May-25 14:27N 32°40' W 091°08'  
Track history (hours):
 
Tides and Currents Weather Stations Pressure Air Temp Water Temp Dewpoint Dewpoint Depression Visibility Wind Speed Wind Dir Waves Ship Positions

Viking Queen

Owner: American River Transportation Company, St Louis, MO. More information available from US FCC via Universal Licensing System and Coast Guard Vessel Documentation Center.

Last reported at 2016-May-30 23:33 UTC. Time now 2016-May-31 00:08 UTC.
Position N 32°07' W 091°07'.

; draft 3.2 m.

Type: Towing. MMSI: 366985050.

Date/timePositionNaut miles runAvg speedWind from/ knotsBaromVisibWave heightAir tempDewpointWater temp
2016-May-30 23:33N 32°07' W 091°07'4 4.3
2016-May-30 22:33N 32°04' W 091°04'4 4.3
2016-May-30 21:33N 31°60' W 091°06'  
2016-May-28 10:32N 29°57' W 090°23'4 4.1
2016-May-28 09:29N 29°58' W 090°18'1 0.2
2016-May-28 06:04N 29°58' W 090°17'0 0.0
2016-May-28 03:14N 29°58' W 090°17'0 0.0
2016-May-27 19:16N 29°58' W 090°17'0 0.0
2016-May-27 17:15N 29°58' W 090°17'129 3.0
2016-May-25 21:32N 31°59' W 091°09'7 7.0
2016-May-25 20:32N 32°05' W 091°05'3 3.0
2016-May-25 19:34N 32°07' W 091°03'8 8.2
2016-May-25 18:33N 32°15' W 090°59'7 6.7
2016-May-25 17:33N 32°20' W 090°54'6 6.5
2016-May-25 16:34N 32°25' W 090°60'8 8.1
2016-May-25 15:32N 32°31' W 091°06'9 8.1
2016-May-25 14:27N 32°40' W 091°08'  

Dump ship's entire track history